createdAt,value
2023-08-14T00:02:16.582Z,12.02
2023-08-14T00:04:44.107Z,14.07
2023-08-14T00:07:11.458Z,16.67
2023-08-14T00:09:38.822Z,11.33
2023-08-14T00:12:06.485Z,11.75
2023-08-14T00:14:33.943Z,15.40
2023-08-14T00:17:01.398Z,11.25
2023-08-14T00:19:28.794Z,13.13
2023-08-14T00:21:56.602Z,12.50
2023-08-14T00:24:24.104Z,13.13
2023-08-14T00:26:51.403Z,11.23
2023-08-14T00:29:18.775Z,12.63
2023-08-14T00:31:46.090Z,11.15
2023-08-14T00:34:13.641Z,10.50
2023-08-14T00:36:40.976Z,13.93
2023-08-14T00:39:08.385Z,13.23
2023-08-14T00:41:35.777Z,12.00
2023-08-14T00:44:03.308Z,12.57
2023-08-14T00:46:30.621Z,12.03
2023-08-14T00:48:58.024Z,14.02
2023-08-14T00:51:26.133Z,12.15
2023-08-14T00:53:53.532Z,12.13
2023-08-14T00:56:20.919Z,12.90
2023-08-14T00:58:48.742Z,14.73
2023-08-14T01:01:16.109Z,14.15
2023-08-14T01:03:44.722Z,14.95
2023-08-14T01:06:12.096Z,15.85
2023-08-14T01:08:39.406Z,12.70
2023-08-14T01:11:14.152Z,11.97
2023-08-14T01:13:55.749Z,12.02
2023-08-14T01:16:25.662Z,12.52
2023-08-14T01:18:53.296Z,11.30
2023-08-14T01:21:24.857Z,13.25
2023-08-14T01:24:16.565Z,11.07
2023-08-14T01:26:46.863Z,12.32
2023-08-14T01:29:15.949Z,11.82
2023-08-14T01:31:43.313Z,11.30
2023-08-14T01:34:11.697Z,13.20
2023-08-14T01:37:18.994Z,12.40
2023-08-14T01:39:49.284Z,11.60
2023-08-14T01:42:37.145Z,14.43
2023-08-14T01:45:11.016Z,12.73
2023-08-14T01:47:38.469Z,11.23
2023-08-14T01:50:07.114Z,13.53
2023-08-14T01:52:34.512Z,12.55
2023-08-14T01:55:01.947Z,13.02
2023-08-14T01:57:31.376Z,13.60
2023-08-14T01:59:58.764Z,10.70
2023-08-14T02:02:26.221Z,11.63
2023-08-14T02:04:54.352Z,12.25
2023-08-14T02:07:23.192Z,11.68
2023-08-14T02:09:50.567Z,14.18
2023-08-14T02:12:18.064Z,13.30
2023-08-14T02:14:45.528Z,14.63
2023-08-14T02:17:12.917Z,12.82
2023-08-14T02:19:42.477Z,13.48
2023-08-14T02:22:09.783Z,13.85
2023-08-14T02:24:37.129Z,14.55
2023-08-14T02:27:04.995Z,13.37
2023-08-14T02:29:34.441Z,15.93
2023-08-14T02:32:01.858Z,12.95
2023-08-14T02:34:47.034Z,14.55
2023-08-14T02:37:14.982Z,15.73
2023-08-14T02:39:42.495Z,15.07
2023-08-14T02:42:10.007Z,14.95
2023-08-14T02:44:37.370Z,12.25
2023-08-14T02:47:05.132Z,14.45
2023-08-14T02:49:32.434Z,13.45
2023-08-14T02:52:00.198Z,13.60
2023-08-14T02:54:27.558Z,16.38
2023-08-14T02:56:55.255Z,14.55
2023-08-14T02:59:25.431Z,13.30
2023-08-14T03:01:52.901Z,13.02
2023-08-14T03:04:20.193Z,18.67
2023-08-14T03:06:47.696Z,14.52
2023-08-14T03:09:15.036Z,13.35
2023-08-14T03:11:42.372Z,15.65
2023-08-14T03:14:09.975Z,15.43
2023-08-14T03:16:37.360Z,13.10
2023-08-14T03:19:04.938Z,16.15
2023-08-14T03:21:32.449Z,13.75
2023-08-14T03:23:59.766Z,13.77
2023-08-14T03:26:27.141Z,15.80
2023-08-14T03:28:54.528Z,14.10
2023-08-14T03:31:22.935Z,17.48
2023-08-14T03:33:50.884Z,16.42
2023-08-14T03:36:18.419Z,13.15
2023-08-14T03:38:45.889Z,14.35
2023-08-14T03:41:14.252Z,12.87
2023-08-14T03:43:41.953Z,13.32
2023-08-14T03:46:09.434Z,15.55
2023-08-14T03:48:36.891Z,20.20
2023-08-14T03:51:04.321Z,14.60
2023-08-14T03:53:31.902Z,13.10
2023-08-14T03:55:59.296Z,16.42
2023-08-14T03:58:26.583Z,14.95
2023-08-14T04:00:54.463Z,15.00
2023-08-14T04:03:23.250Z,14.90
2023-08-14T04:05:56.013Z,15.40
2023-08-14T04:08:23.440Z,14.57
2023-08-14T04:10:58.520Z,17.75
2023-08-14T04:13:27.037Z,17.73
2023-08-14T04:16:01.022Z,15.93
2023-08-14T04:18:28.991Z,18.10
2023-08-14T04:20:56.662Z,16.33
2023-08-14T04:23:25.401Z,14.52
2023-08-14T04:25:53.388Z,15.18
2023-08-14T04:28:22.030Z,17.45
2023-08-14T04:30:49.522Z,15.17
2023-08-14T04:33:17.926Z,13.88
2023-08-14T04:35:46.659Z,15.18
2023-08-14T04:38:14.819Z,16.02
2023-08-14T04:40:45.709Z,15.43
2023-08-14T04:43:13.150Z,15.87
2023-08-14T04:45:40.750Z,16.50
2023-08-14T04:48:08.178Z,17.23
2023-08-14T04:50:36.316Z,15.90
2023-08-14T04:53:06.580Z,16.42
2023-08-14T04:55:35.786Z,14.73
2023-08-14T04:58:03.220Z,14.65
2023-08-14T05:00:30.716Z,13.73
2023-08-14T05:03:00.472Z,15.48
2023-08-14T05:05:27.877Z,16.45
2023-08-14T05:07:55.256Z,16.23
2023-08-14T05:10:22.753Z,17.02
2023-08-14T05:12:50.248Z,16.40
2023-08-14T05:15:17.656Z,14.55
2023-08-14T05:17:45.725Z,15.23
2023-08-14T05:20:13.856Z,12.33
2023-08-14T05:22:41.299Z,14.02
2023-08-14T05:25:10.276Z,15.13
2023-08-14T05:27:40.159Z,15.20
2023-08-14T05:30:08.042Z,14.05
2023-08-14T05:32:35.606Z,14.83
2023-08-14T05:35:03.158Z,14.40
2023-08-14T05:37:30.552Z,15.73
2023-08-14T05:39:58.038Z,15.77
2023-08-14T05:42:25.354Z,15.98
2023-08-14T05:44:52.784Z,14.67
2023-08-14T05:47:20.102Z,14.82
2023-08-14T05:49:47.452Z,15.00
2023-08-14T05:52:14.901Z,12.98
2023-08-14T05:54:42.432Z,14.00
2023-08-14T05:57:09.813Z,14.00
2023-08-14T05:59:37.231Z,15.02
2023-08-14T06:02:04.606Z,13.45
2023-08-14T06:04:32.124Z,13.73
2023-08-14T06:07:01.690Z,14.15
2023-08-14T06:09:29.364Z,14.27
2023-08-14T06:11:56.625Z,16.90
2023-08-14T06:14:24.253Z,14.63
2023-08-14T06:16:51.719Z,12.35
2023-08-14T06:19:19.197Z,15.23
2023-08-14T06:21:46.668Z,12.97
2023-08-14T06:24:14.166Z,11.88
2023-08-14T06:26:41.623Z,12.60
2023-08-14T06:29:09.143Z,11.90
2023-08-14T06:31:36.549Z,14.68
2023-08-14T06:34:04.054Z,13.90
2023-08-14T06:36:31.915Z,13.48
2023-08-14T06:38:59.259Z,12.93
2023-08-14T06:41:26.658Z,12.35
2023-08-14T06:43:54.921Z,12.65
2023-08-14T06:46:22.249Z,10.97
2023-08-14T06:48:49.762Z,12.90
2023-08-14T06:51:17.598Z,11.90
2023-08-14T06:53:45.363Z,11.20
2023-08-14T06:56:12.720Z,10.88
2023-08-14T06:58:40.177Z,11.33
2023-08-14T07:01:08.324Z,10.05
2023-08-14T07:03:36.042Z,10.13
2023-08-14T07:06:03.972Z,10.50
2023-08-14T07:08:31.411Z,9.73
2023-08-14T07:10:59.079Z,12.00
2023-08-14T07:13:26.606Z,10.32
2023-08-14T07:15:53.910Z,9.63
2023-08-14T07:18:21.537Z,10.45
2023-08-14T07:20:49.343Z,13.50
2023-08-14T07:23:17.555Z,12.83
2023-08-14T07:25:45.376Z,10.20
2023-08-14T07:28:12.914Z,9.98
2023-08-14T07:30:40.583Z,10.00
2023-08-14T07:33:09.041Z,9.73
2023-08-14T07:35:36.554Z,11.37
2023-08-14T07:38:04.710Z,12.65
2023-08-14T07:40:31.997Z,9.35
2023-08-14T07:42:59.458Z,9.77
2023-08-14T07:45:27.055Z,9.32
2023-08-14T07:47:54.911Z,10.40
2023-08-14T07:50:22.710Z,10.52
2023-08-14T07:52:50.130Z,9.43
2023-08-14T07:55:17.684Z,9.07
2023-08-14T07:57:47.239Z,10.23
2023-08-14T08:00:15.216Z,9.60
2023-08-14T08:02:43.802Z,8.70
2023-08-14T08:05:11.248Z,9.52
2023-08-14T08:07:38.626Z,8.13
2023-08-14T08:10:06.475Z,8.30
2023-08-14T08:12:33.907Z,8.23
2023-08-14T08:15:01.254Z,7.78
2023-08-14T08:17:28.729Z,7.85
2023-08-14T08:19:56.271Z,7.75
2023-08-14T08:22:23.607Z,7.63
2023-08-14T08:24:50.920Z,8.70
2023-08-14T08:27:18.356Z,10.18
2023-08-14T08:29:46.629Z,8.13
2023-08-14T08:32:14.143Z,10.13
2023-08-14T08:34:41.488Z,9.18
2023-08-14T08:37:08.927Z,8.13
2023-08-14T08:39:36.310Z,9.65
2023-08-14T08:42:03.935Z,8.65
2023-08-14T08:44:35.404Z,10.35
2023-08-14T08:47:11.098Z,9.45
2023-08-14T08:49:38.581Z,7.97
2023-08-14T08:52:06.372Z,7.72
2023-08-14T08:54:33.966Z,8.30
2023-08-14T08:57:01.427Z,8.65
2023-08-14T08:59:28.871Z,10.02
2023-08-14T09:01:57.981Z,8.43
2023-08-14T09:04:26.237Z,9.10
2023-08-14T09:06:54.086Z,10.77
2023-08-14T09:09:21.787Z,8.52
2023-08-14T09:11:49.028Z,8.82
2023-08-14T09:14:18.800Z,8.23
2023-08-14T09:16:46.449Z,10.52
2023-08-14T09:19:18.095Z,11.10
2023-08-14T09:21:45.998Z,8.43
2023-08-14T09:24:13.958Z,8.35
2023-08-14T09:26:44.003Z,11.47
2023-08-14T09:29:14.952Z,7.63
2023-08-14T09:31:45.942Z,8.65
2023-08-14T09:34:19.702Z,7.60
2023-08-14T09:36:48.897Z,9.23
2023-08-14T09:39:19.050Z,10.93
2023-08-14T09:41:48.480Z,7.35
2023-08-14T09:44:18.990Z,7.97
2023-08-14T09:46:46.722Z,9.80
2023-08-14T09:49:14.203Z,7.18
2023-08-14T09:51:41.672Z,6.97
2023-08-14T09:54:09.556Z,10.05
2023-08-14T09:56:37.078Z,6.97
2023-08-14T09:59:04.667Z,6.22
2023-08-14T10:01:32.479Z,6.95
2023-08-14T10:03:59.818Z,9.37
2023-08-14T10:06:27.235Z,8.75
2023-08-14T10:08:59.608Z,6.82
2023-08-14T10:11:29.402Z,6.32
2023-08-14T10:13:58.880Z,7.10
2023-08-14T10:16:29.185Z,6.40
2023-08-14T10:18:56.835Z,7.70
2023-08-14T10:21:27.924Z,8.63
2023-08-14T10:23:55.556Z,8.85
2023-08-14T10:26:24.384Z,7.32
2023-08-14T10:28:53.660Z,6.03
2023-08-14T10:31:21.215Z,8.00
2023-08-14T10:33:48.665Z,8.45
2023-08-14T10:36:20.511Z,7.07
2023-08-14T10:38:48.145Z,10.18
2023-08-14T10:41:16.385Z,8.60
2023-08-14T10:43:44.026Z,7.60
2023-08-14T10:46:12.353Z,6.57
2023-08-14T10:48:39.849Z,7.88
2023-08-14T10:51:09.392Z,7.47
2023-08-14T10:53:37.525Z,7.47
2023-08-14T10:56:08.506Z,7.30
2023-08-14T10:58:36.834Z,7.22
2023-08-14T11:01:04.798Z,7.60
2023-08-14T11:04:04.711Z,8.07
2023-08-14T11:07:09.965Z,8.03
2023-08-14T11:09:38.156Z,11.40
2023-08-14T11:12:07.027Z,7.63
2023-08-14T11:14:39.545Z,8.43
2023-08-14T11:17:07.397Z,6.93
2023-08-14T11:19:36.261Z,6.90
2023-08-14T11:22:03.985Z,7.38
2023-08-14T11:24:33.530Z,7.00
2023-08-14T11:27:01.709Z,7.43
2023-08-14T11:29:31.067Z,8.82
2023-08-14T11:32:01.431Z,7.27
2023-08-14T11:34:29.245Z,8.82
2023-08-14T11:39:32.625Z,6.35
2023-08-14T11:41:59.885Z,8.10
2023-08-14T11:44:27.416Z,8.10
2023-08-14T11:46:54.837Z,6.88
2023-08-14T11:49:22.206Z,7.75
2023-08-14T11:51:50.282Z,6.60
2023-08-14T11:54:17.690Z,9.25
2023-08-14T11:56:45.180Z,7.47
2023-08-14T11:59:12.616Z,8.98
2023-08-14T12:01:40.216Z,7.28
2023-08-14T12:04:08.405Z,7.97
2023-08-14T12:06:35.945Z,8.35
2023-08-14T12:09:07.440Z,9.53
2023-08-14T12:11:34.777Z,8.43
2023-08-14T12:14:04.947Z,7.72
2023-08-14T12:16:32.445Z,8.93
2023-08-14T12:18:59.831Z,7.50
2023-08-14T12:21:28.393Z,8.43
2023-08-14T12:23:56.238Z,10.18
2023-08-14T12:26:23.923Z,6.70
2023-08-14T12:28:51.262Z,7.25
2023-08-14T12:31:19.011Z,9.35
2023-08-14T12:33:48.897Z,6.93
2023-08-14T12:36:21.041Z,8.32
2023-08-14T12:38:48.338Z,6.40
2023-08-14T12:41:15.754Z,6.95
2023-08-14T12:43:43.351Z,7.00
2023-08-14T12:46:10.888Z,7.33
2023-08-14T12:48:38.217Z,7.15
2023-08-14T12:53:35.890Z,6.82
2023-08-14T12:56:04.751Z,7.45
2023-08-14T12:58:32.287Z,8.27
2023-08-14T13:01:04.950Z,7.13
2023-08-14T13:03:36.644Z,7.38
2023-08-14T13:06:06.957Z,7.95
2023-08-14T13:08:34.275Z,7.88
2023-08-14T13:11:01.680Z,7.53
2023-08-14T13:13:29.026Z,6.95
2023-08-14T13:15:56.793Z,8.10
2023-08-14T13:18:24.611Z,7.95
2023-08-14T13:20:52.198Z,9.05
2023-08-14T13:23:19.563Z,8.53
2023-08-14T13:25:46.929Z,7.90
2023-08-14T13:28:14.466Z,8.32
2023-08-14T13:30:44.433Z,10.18
2023-08-14T13:33:15.416Z,7.40
2023-08-14T13:35:42.955Z,7.40
2023-08-14T13:38:10.172Z,7.70
2023-08-14T13:40:37.661Z,6.95
2023-08-14T13:43:05.044Z,7.00
2023-08-14T13:45:32.402Z,8.05
2023-08-14T13:47:59.976Z,8.30
2023-08-14T13:50:33.170Z,9.55
2023-08-14T13:53:02.116Z,6.88
2023-08-14T13:55:30.500Z,9.32
2023-08-14T13:57:58.303Z,7.57
2023-08-14T14:00:29.377Z,7.07
2023-08-14T14:02:58.696Z,7.22
2023-08-14T14:05:26.442Z,6.65
2023-08-14T14:07:55.886Z,8.18
2023-08-14T14:10:27.845Z,6.57
2023-08-14T14:13:01.949Z,8.73
2023-08-14T14:15:31.267Z,6.85
2023-08-14T14:17:59.020Z,6.70
2023-08-14T14:20:26.527Z,7.55
2023-08-14T14:22:53.863Z,7.18
2023-08-14T14:25:21.366Z,6.43
2023-08-14T14:27:48.671Z,6.60
2023-08-14T14:30:16.247Z,6.40
2023-08-14T14:32:43.536Z,7.05
2023-08-14T14:35:10.943Z,7.25
2023-08-14T14:37:38.295Z,8.93
2023-08-14T14:40:06.735Z,7.35
2023-08-14T14:42:33.955Z,7.95
2023-08-14T14:45:01.345Z,6.95
2023-08-14T14:47:28.728Z,7.70
2023-08-14T14:49:56.048Z,8.53
2023-08-14T14:52:23.356Z,6.72
2023-08-14T14:54:50.846Z,6.70
2023-08-14T14:57:18.602Z,7.55
2023-08-14T14:59:47.345Z,7.05
2023-08-14T15:02:27.696Z,7.53
2023-08-14T15:04:57.175Z,7.40
2023-08-14T15:07:24.579Z,6.78
2023-08-14T15:09:52.113Z,6.60
2023-08-14T15:12:19.475Z,7.15
2023-08-14T15:14:47.118Z,8.97
2023-08-14T15:17:14.446Z,7.65
2023-08-14T15:19:41.981Z,6.57
2023-08-14T15:22:09.308Z,8.68
2023-08-14T15:24:37.140Z,7.25
2023-08-14T15:27:04.572Z,7.10
2023-08-14T15:29:31.913Z,7.80
2023-08-14T15:31:59.314Z,7.63
2023-08-14T15:34:26.778Z,6.53
2023-08-14T15:36:54.158Z,6.28
2023-08-14T15:39:21.538Z,8.97
2023-08-14T15:41:48.809Z,6.18
2023-08-14T15:44:16.215Z,7.22
2023-08-14T15:46:43.444Z,8.00
2023-08-14T15:49:10.847Z,7.28
2023-08-14T15:51:38.138Z,7.33
2023-08-14T15:54:05.729Z,7.57
2023-08-14T15:56:32.972Z,8.38
2023-08-14T15:59:00.415Z,9.68
2023-08-14T16:01:27.743Z,6.93
2023-08-14T16:03:55.067Z,7.40
2023-08-14T16:06:22.397Z,9.00
2023-08-14T16:08:49.759Z,7.72
2023-08-14T16:11:17.138Z,7.30
2023-08-14T16:13:44.485Z,7.00
2023-08-14T16:16:11.862Z,6.13
2023-08-14T16:18:39.353Z,6.43
2023-08-14T16:21:07.474Z,7.50
2023-08-14T16:23:34.872Z,10.95
2023-08-14T16:26:02.259Z,7.45
2023-08-14T16:28:29.661Z,6.60
2023-08-14T16:30:57.146Z,6.55
2023-08-14T16:33:24.661Z,6.60
2023-08-14T16:35:52.091Z,6.93
2023-08-14T16:38:19.511Z,7.55
2023-08-14T16:40:46.981Z,7.80
2023-08-14T16:43:14.384Z,9.65
2023-08-14T16:45:43.139Z,7.30
2023-08-14T16:48:12.405Z,9.27
2023-08-14T16:50:39.963Z,7.20
2023-08-14T16:53:08.332Z,9.07
2023-08-14T16:55:35.759Z,7.65
2023-08-14T16:58:03.256Z,7.13
2023-08-14T17:00:30.610Z,6.72
2023-08-14T17:02:58.334Z,6.68
2023-08-14T17:05:25.828Z,8.23
2023-08-14T17:07:53.444Z,8.82
2023-08-14T17:10:20.938Z,6.93
2023-08-14T17:12:50.184Z,8.15
2023-08-14T17:17:50.070Z,7.20
2023-08-14T17:20:17.460Z,6.93
2023-08-14T17:22:44.905Z,7.32
2023-08-14T17:25:12.284Z,7.70
2023-08-14T17:27:39.722Z,8.77
2023-08-14T17:30:07.822Z,8.60
2023-08-14T17:32:35.245Z,10.13
2023-08-14T17:35:02.577Z,9.57
2023-08-14T17:37:30.378Z,7.88
2023-08-14T17:39:57.878Z,8.38
2023-08-14T17:42:25.256Z,6.60
2023-08-14T17:44:52.559Z,7.53
2023-08-14T17:47:22.237Z,9.25
2023-08-14T17:49:49.752Z,8.32
2023-08-14T17:52:17.176Z,7.85
2023-08-14T17:54:44.565Z,8.13
2023-08-14T17:57:11.946Z,7.60
2023-08-14T17:59:39.276Z,7.43
2023-08-14T18:02:06.633Z,7.95
2023-08-14T18:04:33.946Z,10.73
2023-08-14T18:07:01.580Z,8.63
2023-08-14T18:09:29.074Z,10.70
2023-08-14T18:11:56.431Z,12.13
2023-08-14T18:14:23.734Z,9.05
2023-08-14T18:16:51.198Z,8.35
2023-08-14T18:21:49.411Z,8.30
2023-08-14T18:24:16.995Z,10.00
2023-08-14T18:26:44.368Z,10.02
2023-08-14T18:29:11.773Z,9.40
2023-08-14T18:31:39.236Z,11.40
2023-08-14T18:34:07.044Z,9.68
2023-08-14T18:36:34.934Z,10.35
2023-08-14T18:39:02.391Z,9.60
2023-08-14T18:41:29.807Z,11.73
2023-08-14T18:43:57.157Z,11.77
2023-08-14T18:46:24.841Z,8.60
2023-08-14T18:48:52.188Z,10.45
2023-08-14T18:51:19.575Z,11.43
2023-08-14T18:53:48.270Z,11.75
2023-08-14T18:56:15.726Z,8.67
2023-08-14T18:58:43.011Z,11.50
2023-08-14T19:01:12.628Z,11.27
2023-08-14T19:03:39.946Z,8.40
2023-08-14T19:06:07.367Z,12.73
2023-08-14T19:08:34.890Z,8.37
2023-08-14T19:11:02.258Z,10.35
2023-08-14T19:13:29.601Z,11.40
2023-08-14T19:15:57.044Z,11.43
2023-08-14T19:18:24.381Z,9.35
2023-08-14T19:20:51.764Z,9.53
2023-08-14T19:23:19.143Z,10.00
2023-08-14T19:25:47.299Z,10.57
2023-08-14T19:28:21.738Z,10.38
2023-08-14T19:30:50.502Z,10.13
2023-08-14T19:33:17.996Z,12.73
2023-08-14T19:35:45.524Z,12.45
2023-08-14T19:38:12.913Z,10.52
2023-08-14T19:40:40.362Z,10.95
2023-08-14T19:43:07.765Z,11.55
2023-08-14T19:45:36.713Z,12.33
2023-08-14T19:48:04.739Z,9.55
2023-08-14T19:50:33.855Z,11.13
2023-08-14T19:53:01.292Z,10.95
2023-08-14T19:55:29.164Z,10.95
2023-08-14T19:57:56.509Z,11.90
2023-08-14T20:00:24.284Z,11.38
2023-08-14T20:02:54.088Z,11.73
2023-08-14T20:05:21.885Z,11.30
2023-08-14T20:07:49.269Z,10.07
2023-08-14T20:10:17.155Z,11.17
2023-08-14T20:12:44.507Z,12.57
2023-08-14T20:15:12.025Z,10.30
2023-08-14T20:17:39.434Z,10.90
2023-08-14T20:20:08.117Z,12.45
2023-08-14T20:22:35.385Z,11.27
2023-08-14T20:25:02.968Z,12.43
2023-08-14T20:27:30.257Z,14.32
2023-08-14T20:29:57.653Z,11.20
2023-08-14T20:32:24.895Z,12.82
2023-08-14T20:34:52.270Z,11.80
2023-08-14T20:37:19.871Z,11.60
2023-08-14T20:39:47.788Z,11.30
2023-08-14T20:42:15.309Z,10.60
2023-08-14T20:44:42.722Z,13.82
2023-08-14T20:47:09.974Z,10.00
2023-08-14T20:49:37.307Z,12.88
2023-08-14T20:52:05.113Z,10.05
2023-08-14T20:54:32.489Z,11.63
2023-08-14T20:56:59.754Z,11.52
2023-08-14T20:59:27.240Z,9.63
2023-08-14T21:01:55.819Z,9.95
2023-08-14T21:04:23.325Z,10.52
2023-08-14T21:06:50.798Z,13.75
2023-08-14T21:09:18.256Z,10.48
2023-08-14T21:11:45.538Z,11.50
2023-08-14T21:14:13.024Z,13.68
2023-08-14T21:16:40.528Z,10.95
2023-08-14T21:19:08.291Z,11.25
2023-08-14T21:21:35.731Z,11.63
2023-08-14T21:24:03.138Z,11.73
2023-08-14T21:26:31.244Z,10.85
2023-08-14T21:28:58.823Z,11.32
2023-08-14T21:31:26.243Z,10.70
2023-08-14T21:33:53.633Z,10.52
2023-08-14T21:36:20.883Z,10.03
2023-08-14T21:38:48.257Z,9.57
2023-08-14T21:41:15.517Z,11.82
2023-08-14T21:43:43.492Z,9.50
2023-08-14T21:46:10.803Z,10.55
2023-08-14T21:48:38.282Z,10.20
2023-08-14T21:51:05.602Z,11.30
2023-08-14T21:53:33.088Z,9.45
2023-08-14T21:56:00.361Z,9.18
2023-08-14T21:58:27.753Z,11.55
2023-08-14T22:00:55.109Z,9.67
2023-08-14T22:03:22.497Z,12.50
2023-08-14T22:05:59.411Z,10.48
2023-08-14T22:08:27.789Z,9.90
2023-08-14T22:10:56.093Z,9.27
2023-08-14T22:13:23.552Z,10.67
2023-08-14T22:15:51.210Z,9.98
2023-08-14T22:18:19.070Z,12.18
2023-08-14T22:20:46.514Z,10.35
2023-08-14T22:23:14.159Z,12.23
2023-08-14T22:25:42.417Z,11.80
2023-08-14T22:28:09.824Z,9.73
2023-08-14T22:30:37.388Z,11.88
2023-08-14T22:33:05.310Z,10.65
2023-08-14T22:35:32.644Z,9.63
2023-08-14T22:38:00.050Z,11.83
2023-08-14T22:40:27.404Z,10.52
2023-08-14T22:42:55.970Z,13.50
2023-08-14T22:45:25.333Z,11.82
2023-08-14T22:47:52.878Z,10.10
2023-08-14T22:50:20.346Z,10.00
2023-08-14T22:52:47.701Z,9.70
2023-08-14T22:55:15.004Z,9.35
2023-08-14T22:57:42.421Z,11.25
2023-08-14T23:00:10.305Z,11.45
2023-08-14T23:02:39.279Z,11.47
2023-08-14T23:05:08.502Z,12.13
2023-08-14T23:07:36.088Z,9.10
2023-08-14T23:10:03.451Z,9.98
2023-08-14T23:12:30.800Z,10.18
2023-08-14T23:14:58.040Z,11.47
2023-08-14T23:17:25.381Z,11.18
2023-08-14T23:19:52.836Z,9.95
2023-08-14T23:22:20.535Z,11.43
2023-08-14T23:24:47.849Z,10.63
2023-08-14T23:27:15.208Z,12.10
2023-08-14T23:29:42.556Z,11.05
2023-08-14T23:32:10.053Z,10.30
2023-08-14T23:34:37.341Z,9.85
2023-08-14T23:37:05.022Z,11.43
2023-08-14T23:39:32.277Z,10.63
2023-08-14T23:41:59.688Z,11.02
2023-08-14T23:44:27.453Z,11.02
2023-08-14T23:46:54.927Z,10.38
2023-08-14T23:49:22.430Z,9.77
2023-08-14T23:51:49.909Z,12.67
2023-08-14T23:54:17.122Z,10.93
2023-08-14T23:56:44.535Z,11.75
2023-08-14T23:59:11.898Z,13.43
